Time;durP1;ratioP1;P1;durP2;ratioP2;P2;SDS_P1;SDS_P2;PMS_P1;PMS_P2;Temp;Humidity;BMP_temperature;BMP_pressure;BME280_temperature;BME280_humidity;BME280_pressure;Samples;Min_cycle;Max_cycle;Signal;HPM_P1;HPM_P2
2022/07/11 00:01:03;;;;;;;6.55;3.35;;;;;;;16.04;100.00;98899.95;1664273;85;20152;-65
2022/07/11 00:03:29;;;;;;;5.80;3.20;;;;;;;15.97;100.00;98897.47;1652816;85;21099;-64
2022/07/11 00:05:56;;;;;;;;;;;;;;;15.96;100.00;98898.59;1679176;85;21040;-65
2022/07/11 00:08:22;;;;;;;8.05;4.30;;;;;;;15.93;100.00;98893.20;1666151;85;20128;-65
2022/07/11 00:10:48;;;;;;;;;;;;;;;15.86;100.00;98894.27;1659328;85;21079;-66
2022/07/11 00:13:15;;;;;;;8.45;4.62;;;;;;;15.85;100.00;98894.02;1675085;85;20138;-65
2022/07/11 00:15:42;;;;;;;9.30;5.08;;;;;;;15.78;100.00;98893.15;1672203;85;21048;-65
2022/07/11 00:18:08;;;;;;;;;;;;;;;15.76;100.00;98894.05;1656350;85;21254;-65
2022/07/11 00:20:35;;;;;;;9.83;5.65;;;;;;;15.70;100.00;98883.55;1679572;84;20434;-66
2022/07/11 00:23:02;;;;;;;8.95;5.47;;;;;;;15.60;100.00;98891.56;1660304;85;21047;-66
2022/07/11 00:25:28;;;;;;;10.48;5.75;;;;;;;15.61;100.00;98891.00;1652125;87;21036;-66
2022/07/11 00:27:54;;;;;;;;;;;;;;;15.57;100.00;98888.10;1653668;85;21940;-66
2022/07/11 00:30:21;;;;;;;16.65;7.83;;;;;;;15.59;100.00;98884.45;1663069;84;20505;-63
2022/07/11 00:32:48;;;;;;;;;;;;;;;15.53;100.00;98880.84;1679146;85;21075;-64
2022/07/11 00:35:14;;;;;;;15.58;9.20;;;;;;;15.53;100.00;98882.21;1678559;85;20107;-64
2022/07/11 00:37:41;;;;;;;19.62;10.58;;;;;;;15.48;100.00;98871.39;1669056;85;21044;-65
2022/07/11 00:40:09;;;;;;;26.40;12.43;;;;;;;15.42;100.00;98872.92;1668579;85;21155;-64
2022/07/11 00:42:36;;;;;;;26.77;13.32;;;;;;;15.40;100.00;98862.85;1659770;84;21048;-64
2022/07/11 00:45:03;;;;;;;28.25;15.60;;;;;;;15.43;100.00;98854.53;1676534;84;21092;-64
2022/07/11 00:47:30;;;;;;;28.52;16.50;;;;;;;15.49;100.00;98853.81;1676551;85;21049;-64
2022/07/11 00:49:57;;;;;;;36.42;18.32;;;;;;;15.53;100.00;98857.52;1648857;85;21123;-65
2022/07/11 00:52:23;;;;;;;31.50;17.67;;;;;;;15.57;100.00;98856.56;1674170;84;21503;-65
2022/07/11 00:54:50;;;;;;;34.55;19.07;;;;;;;15.65;100.00;98864.53;1686517;84;21585;-65
2022/07/11 00:57:16;;;;;;;42.33;19.27;;;;;;;15.71;100.00;98854.43;1718818;82;20980;-65
2022/07/11 00:59:44;;;;;;;41.60;20.85;;;;;;;15.75;100.00;98851.28;1723190;82;21566;-64
2022/07/11 01:02:11;;;;;;;39.55;19.77;;;;;;;15.78;100.00;98843.76;1730617;82;21363;-65
2022/07/11 01:04:37;;;;;;;34.98;19.25;;;;;;;15.82;100.00;98844.72;1745542;82;21055;-63
2022/07/11 01:07:04;;;;;;;33.78;19.10;;;;;;;15.83;100.00;98842.22;1749979;82;21000;-64
2022/07/11 01:09:31;;;;;;;;;;;;;;;15.83;100.00;98848.27;1737290;82;21189;-64
2022/07/11 01:11:58;;;;;;;40.00;18.10;;;;;;;15.87;100.00;98843.75;1727631;80;20118;-64
2022/07/11 01:14:24;;;;;;;;;;;;;;;15.82;100.00;98839.23;1727146;82;21079;-65
2022/07/11 01:16:51;;;;;;;37.42;18.57;;;;;;;15.82;100.00;98840.60;1727317;82;20162;-65
2022/07/11 01:19:17;;;;;;;40.95;19.50;;;;;;;15.79;100.00;98845.38;1745413;82;21578;-65
2022/07/11 01:21:45;;;;;;;;;;;;;;;15.79;100.00;98841.82;1738209;80;21085;-65
2022/07/11 01:24:12;;;;;;;33.65;18.70;;;;;;;15.79;100.00;98846.75;1736033;82;20099;-65
2022/07/11 01:26:38;;;;;;;;;;;;;;;15.76;100.00;98852.09;1739710;80;21636;-65
2022/07/11 01:29:11;;;;;;;36.48;17.90;;;;;;;15.75;100.00;98847.72;1736175;82;20115;-64
2022/07/11 01:31:40;;;;;;;33.50;17.17;;;;;;;15.71;100.00;98843.45;1729560;80;21012;-64
2022/07/11 01:34:07;;;;;;;33.70;17.20;;;;;;;15.69;100.00;98845.73;1723828;82;21063;-64
2022/07/11 01:36:34;;;;;;;29.70;16.90;;;;;;;15.67;100.00;98841.13;1741880;82;21031;-65
2022/07/11 01:39:00;;;;;;;34.80;17.12;;;;;;;15.66;100.00;98841.46;1723453;82;21091;-64
2022/07/11 01:41:27;;;;;;;28.77;17.20;;;;;;;15.64;100.00;98839.59;1738073;82;21066;-65
2022/07/11 01:43:54;;;;;;;30.82;17.62;;;;;;;15.63;100.00;98836.60;1724074;82;21652;-65
2022/07/11 01:46:21;;;;;;;32.38;16.57;;;;;;;15.61;100.00;98840.25;1739132;82;21062;-65
2022/07/11 01:48:48;;;;;;;28.95;15.90;;;;;;;15.57;100.00;98851.63;1743768;82;21071;-65
2022/07/11 01:51:14;;;;;;;31.55;15.40;;;;;;;15.53;100.00;98837.77;1744867;80;21043;-65
2022/07/11 01:53:41;;;;;;;29.92;14.98;;;;;;;15.53;100.00;98844.63;1743101;80;21071;-65
2022/07/11 01:56:07;;;;;;;28.70;14.45;;;;;;;15.54;100.00;98858.58;1722111;82;21064;-65
2022/07/11 01:58:33;;;;;;;;;;;;;;;15.54;100.00;98860.52;1708983;83;21555;-66
2022/07/11 02:01:00;;;;;;;23.70;11.65;;;;;;;15.55;100.00;98861.58;1725162;83;20478;-66
2022/07/11 02:03:26;;;;;;;;;;;;;;;15.50;100.00;98863.10;1705324;83;21143;-66
2022/07/11 02:05:54;;;;;;;18.90;10.85;;;;;;;15.47;100.00;98867.84;1707293;83;20132;-66
2022/07/11 02:08:21;;;;;;;26.30;11.65;;;;;;;15.41;100.00;98874.04;1725923;83;21518;-65
2022/07/11 02:10:50;;;;;;;20.90;11.20;;;;;;;15.40;100.00;98867.52;1722965;83;21052;-65
2022/07/11 02:13:18;;;;;;;19.37;10.18;;;;;;;15.37;100.00;98864.84;1715571;83;21148;-65
2022/07/11 02:15:46;;;;;;;17.67;9.78;;;;;;;15.31;100.00;98863.96;1711922;83;21524;-65
2022/07/11 02:18:13;;;;;;;16.17;9.30;;;;;;;15.27;100.00;98862.44;1707310;83;21516;-65
2022/07/11 02:20:41;;;;;;;;;;;;;;;15.25;100.00;98856.48;1725526;83;21597;-65
2022/07/11 02:23:08;;;;;;;16.02;8.73;;;;;;;15.23;100.00;98855.20;1723512;82;20135;-64
2022/07/11 02:25:38;;;;;;;16.55;8.35;;;;;;;15.18;100.00;98859.47;1716310;83;21048;-66
2022/07/11 02:28:05;;;;;;;14.28;8.33;;;;;;;15.16;100.00;98865.25;1717247;83;21555;-66
2022/07/11 02:30:32;;;;;;;13.53;7.80;;;;;;;15.12;100.00;98868.98;1713996;83;21071;-66
2022/07/11 02:32:58;;;;;;;12.03;7.35;;;;;;;15.11;100.00;98861.32;1725788;83;21049;-66
2022/07/11 02:35:25;;;;;;;12.88;6.08;;;;;;;15.10;100.00;98863.81;1707797;82;21024;-66
2022/07/11 02:37:52;;;;;;;13.53;6.65;;;;;;;15.03;100.00;98855.27;1708111;83;21048;-65
2022/07/11 02:40:18;;;;;;;13.28;6.08;;;;;;;15.02;100.00;98867.34;1721022;83;21028;-66
2022/07/11 02:42:45;;;;;;;;;;;;;;;15.00;100.00;98863.32;1729081;83;20981;-66
2022/07/11 02:47:45;;;;;;;9.63;5.15;;;;;;;14.94;100.00;98853.91;1880869;74;22857;-66
2022/07/11 02:50:13;;;;;;;9.75;5.25;;;;;;;14.87;100.00;98854.95;1825009;77;21034;-67
2022/07/11 02:52:41;;;;;;;8.85;4.67;;;;;;;14.84;100.00;98852.83;1785978;80;21074;-67
2022/07/11 02:55:09;;;;;;;8.38;4.70;;;;;;;14.85;100.00;98853.08;1791472;79;21958;-67
2022/07/11 02:57:36;;;;;;;8.70;4.33;;;;;;;14.88;100.00;98857.09;1794833;79;21004;-67
2022/07/11 03:00:04;;;;;;;11.03;5.00;;;;;;;14.90;100.00;98852.94;1783714;79;21008;-67
2022/07/11 03:02:31;;;;;;;7.03;3.98;;;;;;;14.95;100.00;98854.69;1756514;80;21051;-66
2022/07/11 03:04:58;;;;;;;9.48;4.65;;;;;;;14.97;100.00;98859.86;1739614;81;21454;-67
2022/07/11 03:07:27;;;;;;;7.15;4.30;;;;;;;15.02;100.00;98852.86;1789330;79;21472;-66
2022/07/11 03:09:54;;;;;;;9.23;4.53;;;;;;;15.08;100.00;98853.75;1790503;79;21103;-64
2022/07/11 03:12:21;;;;;;;9.63;4.28;;;;;;;15.08;100.00;98851.56;1788188;80;21067;-64
2022/07/11 03:14:48;;;;;;;8.83;3.85;;;;;;;15.11;100.00;98856.40;1763184;80;21285;-64
2022/07/11 03:17:17;;;;;;;7.22;3.27;;;;;;;15.13;100.00;98853.57;1784000;79;21520;-64
2022/07/11 03:19:43;;;;;;;7.35;3.22;;;;;;;15.15;100.00;98849.95;1786019;79;21035;-63
2022/07/11 03:22:10;;;;;;;5.50;2.95;;;;;;;15.14;100.00;98858.49;1760777;81;21061;-65
2022/07/11 03:24:37;;;;;;;6.62;2.47;;;;;;;15.14;100.00;98860.67;1760956;80;21047;-65
2022/07/11 03:27:05;;;;;;;3.72;2.35;;;;;;;15.16;100.00;98857.03;1787562;79;21084;-65
2022/07/11 03:29:32;;;;;;;6.67;2.58;;;;;;;15.23;100.00;98868.91;1794175;79;21109;-65
2022/07/11 03:31:58;;;;;;;4.45;2.35;;;;;;;15.25;100.00;98860.59;1761739;80;21025;-65
2022/07/11 03:34:24;;;;;;;;;;;;;;;15.27;100.00;98866.55;1800355;79;21030;-64
2022/07/11 03:36:51;;;;;;;4.87;2.70;;;;;;;15.29;100.00;98863.50;1766395;80;20118;-64
2022/07/11 03:39:17;;;;;;;6.35;3.15;;;;;;;15.24;100.00;98860.34;1759728;80;21104;-64
2022/07/11 03:41:44;;;;;;;5.50;2.60;;;;;;;15.36;100.00;98867.37;1761853;80;21597;-64
2022/07/11 03:44:11;;;;;;;6.10;3.17;;;;;;;15.43;100.00;98860.83;1775555;80;21033;-64
2022/07/11 03:46:38;;;;;;;6.55;3.30;;;;;;;15.54;100.00;98861.89;1787346;79;21062;-64
2022/07/11 03:49:04;;;;;;;11.30;3.70;;;;;;;15.74;100.00;98863.94;1788786;79;21491;-64
2022/07/11 03:51:30;;;;;;;;;;;;;;;15.94;100.00;98864.63;1809919;79;21010;-64
2022/07/11 03:53:57;;;;;;;5.57;2.87;;;;;;;16.07;100.00;98861.42;1771260;78;20106;-64
2022/07/11 03:56:24;;;;;;;;;;;;;;;16.01;100.00;98859.44;1799595;79;22082;-64
2022/07/11 03:58:50;;;;;;;7.33;3.20;;;;;;;16.09;100.00;98848.16;1789557;79;20100;-64
2022/07/11 04:01:17;;;;;;;5.90;3.45;;;;;;;16.16;100.00;98849.83;1759412;80;21064;-65
2022/07/11 04:03:43;;;;;;;7.25;3.65;;;;;;;16.25;100.00;98860.22;1758745;80;21489;-65
2022/07/11 04:06:09;;;;;;;7.12;3.60;;;;;;;16.32;100.00;98861.32;1758318;80;21053;-64
2022/07/11 04:08:36;;;;;;;7.30;4.05;;;;;;;16.49;100.00;98863.73;1758728;80;21162;-65
2022/07/11 04:11:02;;;;;;;;;;;;;;;16.64;100.00;98856.33;1788432;79;20988;-65
2022/07/11 04:13:30;;;;;;;10.00;4.12;;;;;;;16.79;100.00;98852.41;1725016;82;20102;-65
2022/07/11 04:15:57;;;;;;;8.45;3.92;;;;;;;16.88;100.00;98846.87;1753152;80;21013;-64
2022/07/11 04:21:18;;;;;;;9.65;4.47;;;;;;;17.26;100.00;98839.28;1797405;79;22784;-61
2022/07/11 04:23:44;;;;;;;10.20;4.62;;;;;;;17.41;100.00;98840.61;1760070;80;21047;-63
2022/07/11 04:26:11;;;;;;;10.95;4.78;;;;;;;17.64;100.00;98836.94;1729573;82;21649;-65
2022/07/11 04:28:37;;;;;;;11.50;5.10;;;;;;;17.87;100.00;98836.19;1743138;80;21074;-66
2022/07/11 04:31:04;;;;;;;9.43;4.50;;;;;;;18.01;100.00;98830.92;1705515;83;21028;-64
2022/07/11 04:33:30;;;;;;;10.70;5.22;;;;;;;18.22;100.00;98840.70;1726427;82;21126;-64
2022/07/11 04:35:57;;;;;;;8.85;4.62;;;;;;;18.55;100.00;98838.44;1729242;81;21364;-64
2022/07/11 04:38:23;;;;;;;11.90;4.62;;;;;;;18.89;100.00;98839.30;1722610;82;21601;-63
2022/07/11 04:40:50;;;;;;;10.50;5.37;;;;;;;19.14;100.00;98832.58;1731427;81;21050;-65
2022/07/11 04:43:17;;;;;;;9.45;4.92;;;;;;;19.25;100.00;98836.45;1736021;81;21039;-64
2022/07/11 04:45:43;;;;;;;9.40;5.03;;;;;;;19.33;100.00;98822.28;1730024;83;21064;-64
2022/07/11 04:48:11;;;;;;;11.12;4.95;;;;;;;19.41;100.00;98821.91;1726530;81;21058;-64
2022/07/11 04:50:38;;;;;;;10.72;5.17;;;;;;;19.55;100.00;98828.66;1729145;81;21061;-64
2022/07/11 04:53:07;;;;;;;11.20;4.95;;;;;;;19.72;100.00;98820.63;1731056;81;21080;-64
2022/07/11 04:55:37;;;;;;;9.78;4.78;;;;;;;19.68;100.00;98826.05;1725170;81;21399;-63
2022/07/11 04:58:02;;;;;;;8.23;4.53;;;;;;;19.68;100.00;98823.30;1749333;80;21054;-63
2022/07/11 05:00:29;;;;;;;10.05;5.03;;;;;;;19.70;100.00;98822.92;1749239;82;21027;-63
2022/07/11 05:02:56;;;;;;;9.30;4.50;;;;;;;19.80;100.00;98821.05;1740005;81;21556;-63
2022/07/11 05:05:23;;;;;;;9.13;4.67;;;;;;;20.03;100.00;98823.41;1720530;83;21517;-64
2022/07/11 05:07:51;;;;;;;9.98;4.72;;;;;;;20.17;100.00;98818.82;1715257;83;21082;-62
2022/07/11 05:10:18;;;;;;;10.32;5.20;;;;;;;20.36;100.00;98820.33;1699419;83;22030;-63
2022/07/11 05:12:45;;;;;;;9.25;4.75;;;;;;;20.46;100.00;98821.16;1672179;83;21030;-63
2022/07/11 05:15:11;;;;;;;8.50;4.60;;;;;;;20.74;100.00;98821.81;1694758;83;21099;-64
2022/07/11 05:17:38;;;;;;;8.20;4.65;;;;;;;20.95;100.00;98813.17;1701193;84;20990;-65
2022/07/11 05:20:06;;;;;;;7.33;4.65;;;;;;;21.04;100.00;98819.90;1687898;84;21067;-63
2022/07/11 05:22:33;;;;;;;8.55;4.80;;;;;;;21.19;100.00;98821.81;1702917;82;21003;-63
2022/07/11 05:25:00;;;;;;;10.58;4.58;;;;;;;21.35;100.00;98819.79;1728177;82;21106;-63
2022/07/11 05:27:27;;;;;;;9.28;4.20;;;;;;;21.39;100.00;98822.63;1727258;82;21625;-63
2022/07/11 05:29:53;;;;;;;8.25;4.37;;;;;;;21.44;100.00;98812.05;1715972;82;21091;-63
2022/07/11 05:32:19;;;;;;;8.50;4.62;;;;;;;21.50;100.00;98818.91;1715431;82;21578;-63
2022/07/11 05:34:46;;;;;;;9.28;4.58;;;;;;;21.42;100.00;98820.51;1717237;82;21056;-64
2022/07/11 05:37:13;;;;;;;9.30;4.45;;;;;;;21.38;100.00;98818.25;1726722;82;21043;-65
2022/07/11 05:39:39;;;;;;;8.00;4.55;;;;;;;21.41;100.00;98821.67;1684604;82;21067;-64
2022/07/11 05:42:07;;;;;;;6.25;4.03;;;;;;;21.60;100.00;98815.55;1711447;82;21027;-64
2022/07/11 05:44:34;;;;;;;8.73;4.50;;;;;;;21.92;100.00;98818.13;1711055;82;21704;-65
2022/07/11 05:47:02;;;;;;;7.67;3.95;;;;;;;22.52;100.00;98802.49;1687645;83;21085;-65
2022/07/11 05:49:30;;;;;;;9.20;4.08;;;;;;;22.52;100.00;98802.49;1681446;84;21000;-64
2022/07/11 05:51:57;;;;;;;10.03;4.55;;;;;;;22.64;100.00;98807.23;1675191;83;21031;-65
2022/07/11 05:54:24;;;;;;;8.70;4.75;;;;;;;22.75;100.00;98800.48;1681833;84;21074;-65
2022/07/11 05:56:51;;;;;;;7.90;4.37;;;;;;;22.89;100.00;98803.45;1690710;83;21075;-66
2022/07/11 05:59:17;;;;;;;8.55;4.45;;;;;;;22.83;100.00;98800.80;1690499;83;21023;-65
2022/07/11 06:01:44;;;;;;;9.03;4.30;;;;;;;22.69;100.00;98795.85;1711572;84;21102;-66
2022/07/11 06:04:11;;;;;;;8.08;4.37;;;;;;;22.61;100.00;98793.30;1723145;82;21056;-66
2022/07/11 06:06:38;;;;;;;7.87;3.70;;;;;;;22.56;100.00;98796.42;1719811;82;21491;-61
2022/07/11 06:09:05;;;;;;;9.18;4.20;;;;;;;22.65;100.00;98795.55;1717471;82;21039;-62
2022/07/11 06:11:31;;;;;;;8.45;3.98;;;;;;;22.91;100.00;98792.79;1717293;82;21062;-63
2022/07/11 06:13:58;;;;;;;8.50;3.45;;;;;;;23.18;100.00;98787.38;1682832;84;21020;-62
2022/07/11 06:16:25;;;;;;;6.15;3.37;;;;;;;23.40;100.00;98785.66;1682744;85;21533;-63
2022/07/11 06:18:52;;;;;;;6.60;3.55;;;;;;;23.63;100.00;98772.44;1681612;84;20983;-63
2022/07/11 06:21:22;;;;;;;7.15;3.90;;;;;;;23.75;100.00;98787.47;1687505;85;20994;-64
2022/07/11 06:23:48;;;;;;;8.50;4.10;;;;;;;23.85;100.00;98785.96;1684952;83;21657;-64
2022/07/11 06:26:15;;;;;;;8.85;4.30;;;;;;;23.97;100.00;98781.52;1719693;81;21525;-62
2022/07/11 06:28:42;;;;;;;9.05;4.10;;;;;;;23.89;100.00;98790.16;1699546;82;21565;-62
2022/07/11 06:31:08;;;;;;;6.72;3.70;;;;;;;23.78;100.00;98790.06;1721980;82;21047;-64
2022/07/11 06:33:36;;;;;;;8.58;4.20;;;;;;;23.58;100.00;98781.72;1683793;83;21038;-63
2022/07/11 06:36:04;;;;;;;9.38;4.40;;;;;;;23.45;100.00;98795.09;1688456;85;21038;-63
2022/07/11 06:38:31;;;;;;;8.55;4.25;;;;;;;23.23;100.00;98792.62;1674293;85;21094;-61
2022/07/11 06:40:58;;;;;;;8.88;4.08;;;;;;;23.12;100.00;98784.74;1676042;84;21127;-62
2022/07/11 06:43:24;;;;;;;10.32;4.42;;;;;;;22.78;100.00;98788.63;1724183;81;21036;-64
2022/07/11 06:45:51;;;;;;;8.03;4.25;;;;;;;22.58;100.00;98795.44;1724386;83;21552;-63
2022/07/11 06:48:18;;;;;;;13.00;4.62;;;;;;;22.44;100.00;98794.65;1721837;82;21055;-64
2022/07/11 06:50:44;;;;;;;8.70;4.42;;;;;;;22.28;100.00;98798.94;1689628;84;21030;-62
2022/07/11 06:53:11;;;;;;;10.53;4.40;;;;;;;22.16;100.00;98783.91;1724599;81;21051;-63
2022/07/11 06:55:38;;;;;;;7.80;3.92;;;;;;;22.16;100.00;98783.91;1719677;81;21076;-64
2022/07/11 06:58:05;;;;;;;9.05;4.40;;;;;;;22.08;100.00;98786.34;1722696;81;21046;-64
2022/07/11 07:00:32;;;;;;;9.55;3.95;;;;;;;21.95;100.00;98790.48;1719149;81;21601;-64
2022/07/11 07:02:58;;;;;;;8.88;4.70;;;;;;;21.85;100.00;98793.84;1721339;80;21043;-63
2022/07/11 07:05:25;;;;;;;11.45;4.47;;;;;;;21.82;100.00;98797.35;1719306;82;21059;-63
2022/07/11 07:07:53;;;;;;;10.78;5.08;;;;;;;21.88;100.00;98795.06;1718853;82;21011;-65
2022/07/11 07:10:20;;;;;;;12.75;5.12;;;;;;;21.87;100.00;98794.84;1718907;83;21098;-62
2022/07/11 07:12:46;;;;;;;11.00;4.67;;;;;;;21.79;100.00;98785.02;1723095;81;21031;-64
2022/07/11 07:15:13;;;;;;;8.93;4.40;;;;;;;21.78;100.00;98795.91;1723441;81;21100;-64
2022/07/11 07:17:39;;;;;;;9.48;4.10;;;;;;;21.89;100.00;98792.52;1720272;81;21553;-66
2022/07/11 07:20:08;;;;;;;9.08;4.22;;;;;;;21.92;100.00;98792.61;1716964;81;21609;-63
2022/07/11 07:22:35;;;;;;;8.13;4.33;;;;;;;21.94;100.00;98787.48;1727464;81;21019;-64
2022/07/11 07:25:01;;;;;;;8.08;3.83;;;;;;;21.87;100.00;98790.11;1729641;81;21039;-64
2022/07/11 07:27:28;;;;;;;9.55;4.10;;;;;;;21.78;100.00;98795.91;1729453;81;21045;-63
2022/07/11 07:29:54;;;;;;;10.28;4.20;;;;;;;21.78;100.00;98788.98;1730693;81;21066;-61
2022/07/11 07:32:21;;;;;;;7.72;4.15;;;;;;;21.82;100.00;98807.05;1715526;82;21011;-62
2022/07/11 07:34:47;;;;;;;8.55;3.65;;;;;;;21.73;100.00;98799.55;1739007;82;21133;-62
2022/07/11 07:37:14;;;;;;;9.23;4.35;;;;;;;21.62;100.00;98801.31;1736476;82;20996;-64
2022/07/11 07:39:41;;;;;;;8.85;3.90;;;;;;;21.55;100.00;98795.64;1730090;81;21115;-60
2022/07/11 07:42:07;;;;;;;7.85;3.80;;;;;;;21.47;100.00;98794.70;1731371;81;21048;-61
2022/07/11 07:44:35;;;;;;;8.03;4.30;;;;;;;21.41;100.00;98795.37;1729825;82;21480;-61
2022/07/11 07:47:01;;;;;;;7.78;3.30;;;;;;;21.40;100.00;98799.33;1730055;82;21019;-63
2022/07/11 07:49:28;;;;;;;6.83;3.35;;;;;;;21.40;100.00;98795.17;1708708;83;21032;-60
2022/07/11 07:51:55;;;;;;;10.32;4.08;;;;;;;21.33;100.00;98804.91;1729991;82;21090;-61
2022/07/11 07:54:21;;;;;;;7.92;3.60;;;;;;;21.27;100.00;98806.96;1737271;81;21103;-62
2022/07/11 07:56:48;;;;;;;7.37;3.30;;;;;;;21.12;100.00;98812.78;1719336;81;21633;-62
2022/07/11 07:59:15;;;;;;;9.28;3.70;;;;;;;21.07;100.00;98815.02;1728363;81;21484;-63
2022/07/11 08:01:45;;;;;;;8.85;3.27;;;;;;;21.07;100.00;98815.02;1727944;82;21080;-62
2022/07/11 08:04:11;;;;;;;8.58;3.60;;;;;;;21.15;100.00;98820.96;1715996;82;21097;-61
2022/07/11 08:06:38;;;;;;;7.12;3.50;;;;;;;21.28;100.00;98819.06;1723257;82;21078;-60
2022/07/11 08:09:05;;;;;;;7.60;3.60;;;;;;;21.35;100.00;98823.94;1726902;81;21102;-60
2022/07/11 08:11:33;;;;;;;9.68;3.83;;;;;;;21.38;100.00;98815.48;1727394;83;21537;-62
2022/07/11 08:13:59;;;;;;;7.75;4.08;;;;;;;21.33;100.00;98820.14;1734400;80;21574;-61
2022/07/11 08:16:28;;;;;;;8.85;4.00;;;;;;;21.33;100.00;98809.06;1669232;84;21030;-62
2022/07/11 08:18:56;;;;;;;8.55;3.45;;;;;;;21.32;100.00;98812.22;1702891;83;21031;-61
2022/07/11 08:21:22;;;;;;;8.38;3.70;;;;;;;21.24;100.00;98809.08;1690055;84;21521;-61
2022/07/11 08:23:49;;;;;;;8.45;3.40;;;;;;;21.21;100.00;98819.50;1718588;82;21597;-61
2022/07/11 08:26:15;;;;;;;9.00;3.50;;;;;;;21.19;100.00;98806.59;1725564;81;20999;-62
2022/07/11 08:28:42;;;;;;;6.70;3.50;;;;;;;21.24;100.00;98806.31;1692382;83;21766;-63
2022/07/11 08:31:08;;;;;;;6.90;3.35;;;;;;;21.29;100.00;98807.41;1721828;82;20999;-65
2022/07/11 08:33:35;;;;;;;8.58;3.55;;;;;;;21.36;100.00;98821.98;1719223;82;21026;-67
2022/07/11 08:36:01;;;;;;;4.85;2.80;;;;;;;21.47;100.00;98818.23;1722181;83;21051;-63
2022/07/11 08:38:28;;;;;;;6.60;2.98;;;;;;;21.53;100.00;98819.56;1720268;81;21043;-64
2022/07/11 08:40:56;;;;;;;6.60;3.00;;;;;;;21.66;100.00;98818.80;1718613;81;21070;-64
2022/07/11 08:43:28;;;;;;;7.37;2.92;;;;;;;21.84;100.00;98826.28;1718628;82;21565;-65
2022/07/11 08:45:55;;;;;;;4.78;2.60;;;;;;;21.90;100.00;98814.88;1718955;81;21055;-61
2022/07/11 08:48:22;;;;;;;9.38;2.80;;;;;;;21.88;100.00;98813.07;1719083;82;21090;-64
2022/07/11 08:50:51;;;;;;;6.58;2.60;;;;;;;21.83;100.00;98812.78;1718458;82;21577;-63
2022/07/11 08:53:17;;;;;;;5.45;2.77;;;;;;;21.83;100.00;98814.98;1718491;82;21082;-63
2022/07/11 08:55:44;;;;;;;6.62;2.77;;;;;;;21.86;100.00;98815.42;1701326;82;21112;-64
2022/07/11 08:58:11;;;;;;;7.50;2.65;;;;;;;21.72;100.00;98821.48;1719518;81;21586;-62
2022/07/11 09:00:39;;;;;;;4.95;2.85;;;;;;;21.63;100.00;98828.66;1718232;82;21122;-63
2022/07/11 09:03:06;;;;;;;6.10;2.87;;;;;;;21.57;100.00;98825.97;1690633;82;21011;-63
2022/07/11 09:05:32;;;;;;;5.87;2.90;;;;;;;21.55;100.00;98819.17;1719121;81;21051;-63
2022/07/11 09:07:59;;;;;;;5.33;2.50;;;;;;;21.47;100.00;98827.15;1723617;81;21076;-64
2022/07/11 09:10:26;;;;;;;4.37;2.08;;;;;;;21.44;100.00;98814.01;1719800;81;21410;-64
2022/07/11 09:13:06;;;;;;;5.47;2.02;;;;;;;21.36;100.00;98824.75;1721756;81;21075;-62
2022/07/11 09:15:42;;;;;;;6.25;2.10;;;;;;;21.27;100.00;98811.11;1723083;81;21031;-65
2022/07/11 09:18:34;;;;;;;;;;;;;;;21.07;100.00;98825.51;1719720;81;21117;-64
2022/07/11 09:26:45;;;;;;;4.80;2.00;;;;;;;20.41;100.00;98812.31;1717442;82;21050;-62
2022/07/11 09:29:14;;;;;;;6.00;2.55;;;;;;;20.24;100.00;98828.09;1724585;82;21113;-60
2022/07/11 09:31:42;;;;;;;5.15;2.15;;;;;;;20.24;100.00;98832.81;1724118;83;21054;-63
2022/07/11 09:34:10;;;;;;;4.12;1.62;;;;;;;20.22;100.00;98833.19;1724012;82;21070;-65
2022/07/11 09:36:48;;;;;;;4.78;1.60;;;;;;;20.23;100.00;98825.67;1726890;81;21017;-64
2022/07/11 09:39:18;;;;;;;7.67;1.70;;;;;;;20.27;100.00;98834.31;1725376;81;21379;-61
2022/07/11 09:41:48;;;;;;;3.92;1.82;;;;;;;20.28;100.00;98824.88;1650531;84;21760;-62
2022/07/11 09:44:22;;;;;;;4.53;1.40;;;;;;;20.36;100.00;98834.14;1715685;82;21078;-66
2022/07/11 09:46:51;;;;;;;2.95;1.50;;;;;;;20.46;100.00;98819.77;1692706;85;21515;-64
2022/07/11 09:49:36;;;;;;;3.65;1.50;;;;;;;20.56;100.00;98825.32;1660312;85;21856;-65
2022/07/11 09:52:14;;;;;;;5.35;1.50;;;;;;;20.54;100.00;98824.89;1689754;85;21625;-64
2022/07/11 09:54:59;;;;;;;3.62;1.50;;;;;;;20.61;100.00;98831.97;1691953;83;21089;-64
2022/07/11 09:57:35;;;;;;;3.20;1.70;;;;;;;20.64;100.00;98828.48;1671740;85;21057;-64
2022/07/11 10:00:04;;;;;;;3.40;1.70;;;;;;;20.57;100.00;98839.38;1672925;84;21105;-65
2022/07/11 10:02:31;;;;;;;4.45;1.67;;;;;;;20.53;100.00;98826.85;1673727;84;21592;-64
2022/07/11 10:05:00;;;;;;;4.47;2.30;;;;;;;20.46;100.00;98826.69;1673749;84;21685;-65
2022/07/11 10:07:28;;;;;;;7.80;2.50;;;;;;;20.46;100.00;98828.06;1672996;86;21090;-66
2022/07/11 10:09:58;;;;;;;5.47;2.22;;;;;;;20.44;100.00;98824.84;1673017;84;21594;-65
2022/07/11 10:12:26;;;;;;;5.47;2.30;;;;;;;20.41;100.00;98822.80;1673128;86;21093;-64
2022/07/11 10:14:53;;;;;;;6.45;2.55;;;;;;;20.55;100.00;98827.86;1675153;84;21109;-65
2022/07/11 10:18:09;;;;;;;3.62;2.10;;;;;;;20.64;100.00;98814.66;1673081;85;21129;-67
2022/07/11 10:20:46;;;;;;;4.50;2.35;;;;;;;20.76;100.00;98813.94;1673124;86;21565;-64
2022/07/11 10:23:32;;;;;;;3.58;1.90;;;;;;;20.98;100.00;98814.41;1669578;84;21106;-64
2022/07/11 10:26:26;;;;;;;5.78;2.50;;;;;;;21.16;100.00;98803.98;1670766;86;21044;-65
2022/07/11 10:29:01;;;;;;;6.22;2.35;;;;;;;21.33;100.00;98802.72;1670637;84;21586;-64
2022/07/11 10:31:30;;;;;;;4.58;2.33;;;;;;;21.32;100.00;98808.06;1670576;86;21055;-64
2022/07/11 10:34:06;;;;;;;5.78;2.30;;;;;;;21.32;100.00;98820.52;1670835;84;21083;-64
2022/07/11 10:36:40;;;;;;;4.62;2.02;;;;;;;21.30;100.00;98825.03;1670536;86;21908;-64
2022/07/11 10:39:19;;;;;;;5.97;2.47;;;;;;;21.33;100.00;98827.06;1670575;84;21609;-63
2022/07/11 10:41:45;;;;;;;6.03;2.80;;;;;;;21.34;100.00;98834.78;1670571;84;21059;-63
2022/07/11 10:44:12;;;;;;;7.85;3.37;;;;;;;21.25;100.00;98837.79;1670786;84;21486;-63
2022/07/11 10:46:39;;;;;;;5.17;3.17;;;;;;;21.09;100.00;98843.11;1670224;86;21055;-65
2022/07/11 10:49:26;;;;;;;6.97;3.27;;;;;;;20.83;100.00;98849.28;1669113;84;21510;-65
2022/07/11 10:52:04;;;;;;;11.90;5.55;;;;;;;20.64;100.00;98861.09;1669484;84;21123;-63
2022/07/11 10:54:51;;;;;;;12.40;6.10;;;;;;;20.71;100.00;98856.30;1663308;83;21086;-63
2022/07/11 10:57:50;;;;;;;11.05;4.40;;;;;;;20.91;100.00;98851.60;1669148;85;21094;-63
2022/07/11 11:00:21;;;;;;;8.38;4.28;;;;;;;21.01;100.00;98846.30;1649013;85;21704;-63
2022/07/11 11:03:08;;;;;;;8.60;4.45;;;;;;;21.00;100.00;98841.15;1679275;85;21059;-63
2022/07/11 11:05:48;;;;;;;10.13;4.65;;;;;;;20.83;100.00;98845.13;1653878;85;21043;-63
2022/07/11 11:08:40;;;;;;;11.22;4.80;;;;;;;20.61;100.00;98840.27;1708635;82;21137;-62
2022/07/11 11:11:22;;;;;;;10.78;4.15;;;;;;;20.37;100.00;98841.25;1717578;82;21015;-63
2022/07/11 11:14:18;;;;;;;9.00;4.65;;;;;;;20.38;100.00;98845.62;1710942;82;21554;-63
2022/07/11 11:16:45;;;;;;;9.90;4.65;;;;;;;20.28;100.00;98853.89;1708233;82;21054;-63
2022/07/11 11:19:49;;;;;;;10.20;4.75;;;;;;;20.16;100.00;98863.61;1713154;82;21102;-63
2022/07/11 11:22:18;;;;;;;12.50;5.08;;;;;;;20.12;100.00;98863.31;1711832;82;21060;-64
2022/07/11 11:24:45;;;;;;;9.63;5.20;;;;;;;20.17;100.00;98851.98;1676914;85;21094;-64
2022/07/11 11:27:25;;;;;;;10.30;4.50;;;;;;;20.13;100.00;98855.22;1710276;82;21039;-63
2022/07/11 11:29:54;;;;;;;10.65;5.05;;;;;;;20.10;100.00;98854.56;1704742;82;21051;-64
2022/07/11 11:32:30;;;;;;;7.53;4.30;;;;;;;20.09;100.00;98851.56;1709260;82;20992;-62
2022/07/11 11:34:58;;;;;;;9.18;4.35;;;;;;;20.10;100.00;98851.80;1704985;82;21047;-64
2022/07/11 11:37:25;;;;;;;6.37;3.42;;;;;;;20.06;100.00;98853.66;1705402;82;21598;-65
2022/07/11 11:39:58;;;;;;;10.13;4.12;;;;;;;19.99;100.00;98853.48;1712431;82;21095;-63
2022/07/11 11:42:25;;;;;;;9.15;4.22;;;;;;;19.84;100.00;98854.48;1707718;83;21013;-63
2022/07/11 11:45:05;;;;;;;6.60;3.77;;;;;;;19.69;100.00;98855.27;1708230;82;21138;-63